createdAt,value
2018-08-23T00:00:33.863Z,116.30
2018-08-23T00:02:36.968Z,114.93
2018-08-23T00:04:40.143Z,119.43
2018-08-23T00:06:53.208Z,125.37
2018-08-23T00:08:58.085Z,127.20
2018-08-23T00:11:01.508Z,132.67
2018-08-23T00:13:06.295Z,127.33
2018-08-23T00:15:12.404Z,137.80
2018-08-23T00:17:15.507Z,122.10
2018-08-23T00:19:18.625Z,124.43
2018-08-23T00:21:27.127Z,113.83
2018-08-23T00:23:30.236Z,130.53
2018-08-23T00:25:33.915Z,125.07
2018-08-23T00:27:37.009Z,125.67
2018-08-23T00:29:40.110Z,134.73
2018-08-23T00:31:43.216Z,144.33
2018-08-23T00:33:46.320Z,135.47
2018-08-23T00:35:49.415Z,124.10
2018-08-23T00:37:52.511Z,124.40
2018-08-23T00:39:58.367Z,137.30
2018-08-23T00:42:07.697Z,125.43
2018-08-23T00:44:10.807Z,134.00
2018-08-23T00:46:14.785Z,131.13
2018-08-23T00:48:17.882Z,138.83
2018-08-23T00:51:01.818Z,128.90
2018-08-23T00:53:04.912Z,131.00
2018-08-23T00:55:16.661Z,140.70
2018-08-23T00:57:19.767Z,136.33
2018-08-23T00:59:22.868Z,143.57
2018-08-23T01:01:25.967Z,145.93
2018-08-23T01:03:29.079Z,133.53
2018-08-23T01:05:36.527Z,135.83
2018-08-23T01:07:39.624Z,135.10
2018-08-23T01:09:45.051Z,149.47
2018-08-23T01:11:48.155Z,141.13
2018-08-23T01:13:51.259Z,131.73
2018-08-23T01:15:54.359Z,148.27
2018-08-23T01:18:10.181Z,138.80
2018-08-23T01:20:13.300Z,136.07
2018-08-23T01:22:16.409Z,146.77
2018-08-23T01:24:19.495Z,139.60
2018-08-23T01:26:22.594Z,129.20
2018-08-23T01:28:25.695Z,130.60
2018-08-23T01:30:28.796Z,135.03
2018-08-23T01:32:32.793Z,147.37
2018-08-23T01:34:36.092Z,152.43
2018-08-23T01:36:39.191Z,143.67
2018-08-23T01:38:42.291Z,139.93
2018-08-23T01:40:45.548Z,144.87
2018-08-23T01:42:48.636Z,141.23
2018-08-23T01:44:51.739Z,157.10
2018-08-23T01:46:54.831Z,139.23
2018-08-23T01:48:58.052Z,143.13
2018-08-23T01:51:01.248Z,144.60
2018-08-23T01:53:04.463Z,158.50
2018-08-23T01:55:07.555Z,139.43
2018-08-23T01:57:10.644Z,154.17
2018-08-23T01:59:13.735Z,148.00
2018-08-23T02:01:18.127Z,140.80
2018-08-23T02:03:21.214Z,150.33
2018-08-23T02:05:24.460Z,145.43
2018-08-23T02:07:27.687Z,148.83
2018-08-23T02:09:30.785Z,144.37
2018-08-23T02:11:33.879Z,145.33
2018-08-23T02:13:36.962Z,155.17
2018-08-23T02:15:45.520Z,156.33
2018-08-23T02:17:54.479Z,169.83
2018-08-23T02:19:57.577Z,153.80
2018-08-23T02:22:00.668Z,162.23
2018-08-23T02:24:03.764Z,147.03
2018-08-23T02:26:06.855Z,173.57
2018-08-23T02:28:11.064Z,161.50
2018-08-23T02:30:14.160Z,169.93
2018-08-23T02:32:17.263Z,159.37
2018-08-23T02:34:20.351Z,166.70
2018-08-23T02:36:23.476Z,159.50
2018-08-23T02:38:28.107Z,172.87
2018-08-23T02:40:31.648Z,172.13
2018-08-23T02:42:34.744Z,152.07
2018-08-23T02:44:37.905Z,148.13
2018-08-23T02:46:40.949Z,156.03
2018-08-23T02:48:44.238Z,163.73
2018-08-23T02:50:48.043Z,162.07
2018-08-23T02:52:51.137Z,158.47
2018-08-23T02:54:54.232Z,167.77
2018-08-23T02:56:58.218Z,157.13
2018-08-23T02:59:06.273Z,165.73
2018-08-23T03:01:09.370Z,152.40
2018-08-23T03:03:12.488Z,156.83
2018-08-23T03:05:19.157Z,155.57
2018-08-23T03:07:22.260Z,153.90
2018-08-23T03:09:27.276Z,171.27
2018-08-23T03:11:30.380Z,176.00
2018-08-23T03:13:34.661Z,165.80
2018-08-23T03:15:37.755Z,154.00
2018-08-23T03:17:46.855Z,168.90
2018-08-23T03:20:00.029Z,157.87
2018-08-23T03:22:03.083Z,165.27
2018-08-23T03:24:06.171Z,156.10
2018-08-23T03:26:09.136Z,159.17
2018-08-23T03:28:12.224Z,173.77
2018-08-23T03:30:16.364Z,155.20
2018-08-23T03:32:19.465Z,182.87
2018-08-23T03:34:22.399Z,180.43
2018-08-23T03:36:25.261Z,178.97
2018-08-23T03:38:28.357Z,181.20
2018-08-23T03:40:31.461Z,178.90
2018-08-23T03:42:34.556Z,166.90
2018-08-23T03:44:38.153Z,185.13
2018-08-23T03:46:47.471Z,155.77
2018-08-23T03:49:09.224Z,179.83
2018-08-23T03:51:12.161Z,197.83
2018-08-23T03:53:15.260Z,171.90
2018-08-23T03:55:20.596Z,194.40
2018-08-23T03:57:23.511Z,206.47
2018-08-23T03:59:26.391Z,204.23
2018-08-23T04:01:29.328Z,199.63
2018-08-23T04:03:32.435Z,255.63
2018-08-23T04:05:35.391Z,196.87
2018-08-23T04:07:39.127Z,208.57
2018-08-23T04:09:42.407Z,201.37
2018-08-23T04:11:45.286Z,199.30
2018-08-23T04:13:48.983Z,197.70
2018-08-23T04:15:51.849Z,224.43
2018-08-23T04:17:54.714Z,201.53
2018-08-23T04:19:57.577Z,217.87
2018-08-23T04:22:00.483Z,220.47
2018-08-23T04:24:03.354Z,227.63
2018-08-23T04:26:06.216Z,208.53
2018-08-23T04:28:09.091Z,211.10
2018-08-23T04:30:11.943Z,198.83
2018-08-23T04:32:20.646Z,194.67
2018-08-23T04:34:23.515Z,191.67
2018-08-23T04:36:28.051Z,195.03
2018-08-23T04:38:30.929Z,184.20
2018-08-23T04:40:33.798Z,202.17
2018-08-23T04:42:36.907Z,187.13
2018-08-23T04:44:45.115Z,171.53
2018-08-23T04:46:47.992Z,177.60
2018-08-23T04:48:50.875Z,159.90
2018-08-23T04:50:53.774Z,174.93
2018-08-23T04:52:56.657Z,160.77
2018-08-23T04:54:59.554Z,180.47
2018-08-23T04:57:02.420Z,151.90
2018-08-23T04:59:05.304Z,145.73
2018-08-23T05:01:08.203Z,167.33
2018-08-23T05:03:11.074Z,173.33
2018-08-23T05:05:13.959Z,139.13
2018-08-23T05:07:16.843Z,158.13
2018-08-23T05:09:19.722Z,167.23
2018-08-23T05:11:22.698Z,143.20
2018-08-23T05:13:25.804Z,134.87
2018-08-23T05:15:28.919Z,123.27
2018-08-23T05:17:32.098Z,126.27
2018-08-23T05:19:35.219Z,145.07
2018-08-23T05:21:38.331Z,110.27
2018-08-23T05:23:41.429Z,121.83
2018-08-23T05:25:44.532Z,120.70
2018-08-23T05:28:06.131Z,135.90
2018-08-23T05:30:09.227Z,136.93
2018-08-23T05:32:12.337Z,123.27
2018-08-23T05:34:15.439Z,137.90
2018-08-23T05:36:18.545Z,139.30
2018-08-23T05:38:21.644Z,142.37
2018-08-23T05:40:24.832Z,150.53
2018-08-23T05:42:43.531Z,139.57
2018-08-23T05:44:46.635Z,122.10
2018-08-23T05:46:51.293Z,133.97
2018-08-23T05:48:54.409Z,128.17
2018-08-23T05:50:58.224Z,114.37
2018-08-23T05:53:01.299Z,124.63
2018-08-23T05:55:04.399Z,114.37
2018-08-23T05:57:07.752Z,111.73
2018-08-23T05:59:14.927Z,104.53
2018-08-23T06:01:18.011Z,99.13
2018-08-23T06:03:21.095Z,94.70
2018-08-23T06:05:24.188Z,98.83
2018-08-23T06:07:27.284Z,121.17
2018-08-23T06:09:30.380Z,89.00
2018-08-23T06:11:33.459Z,87.40
2018-08-23T06:13:36.547Z,107.83
2018-08-23T06:15:45.835Z,88.10
2018-08-23T06:17:48.927Z,86.07
2018-08-23T06:19:52.032Z,79.47
2018-08-23T06:21:55.123Z,83.43
2018-08-23T06:24:01.585Z,71.17
2018-08-23T06:26:04.427Z,68.73
2018-08-23T06:28:12.867Z,71.27
2018-08-23T06:30:15.724Z,80.00
2018-08-23T06:32:18.590Z,70.63
2018-08-23T06:34:21.460Z,99.73
2018-08-23T06:36:24.363Z,77.97
2018-08-23T06:38:27.230Z,76.57
2018-08-23T06:40:30.331Z,79.70
2018-08-23T06:42:44.426Z,79.50
2018-08-23T06:44:53.615Z,81.87
2018-08-23T06:46:56.700Z,81.13
2018-08-23T06:48:59.918Z,78.33
2018-08-23T06:51:03.908Z,87.10
2018-08-23T06:53:06.975Z,84.40
2018-08-23T06:55:14.628Z,83.07
2018-08-23T06:57:17.728Z,84.23
2018-08-23T06:59:20.842Z,95.47
2018-08-23T07:01:34.868Z,85.83
2018-08-23T07:03:50.868Z,94.60
2018-08-23T07:05:53.962Z,80.30
2018-08-23T07:07:57.068Z,96.80
2018-08-23T07:10:00.171Z,81.40
2018-08-23T07:12:08.840Z,88.57
2018-08-23T07:14:18.265Z,82.00
2018-08-23T07:16:21.368Z,92.37
2018-08-23T07:18:24.459Z,82.90
2018-08-23T07:20:27.557Z,86.93
2018-08-23T07:22:33.567Z,88.80
2018-08-23T07:24:41.463Z,92.27
2018-08-23T07:26:44.567Z,91.07
2018-08-23T07:28:47.663Z,91.63
2018-08-23T07:30:52.012Z,87.87
2018-08-23T07:32:55.140Z,89.47
2018-08-23T07:35:10.724Z,92.00
2018-08-23T07:37:17.892Z,99.13
2018-08-23T07:39:21.080Z,79.07
2018-08-23T07:41:24.095Z,85.33
2018-08-23T07:43:27.199Z,79.50
2018-08-23T07:45:30.323Z,86.87
2018-08-23T07:47:35.983Z,70.33
2018-08-23T07:49:39.193Z,88.40
2018-08-23T07:51:42.278Z,72.77
2018-08-23T07:53:45.409Z,78.40
2018-08-23T07:55:48.520Z,73.40
2018-08-23T07:57:51.620Z,74.23
2018-08-23T07:59:56.771Z,79.43
2018-08-23T08:01:59.879Z,60.77
2018-08-23T08:04:02.982Z,67.90
2018-08-23T08:06:06.096Z,62.90
2018-08-23T08:08:10.003Z,64.20
2018-08-23T08:10:20.587Z,62.90
2018-08-23T08:12:35.148Z,60.33
2018-08-23T08:14:38.816Z,60.93
2018-08-23T08:16:41.983Z,53.20
2018-08-23T08:18:45.075Z,63.73
2018-08-23T08:20:54.945Z,59.60
2018-08-23T08:22:58.004Z,63.17
2018-08-23T08:25:07.507Z,60.23
2018-08-23T08:27:10.676Z,57.43
2018-08-23T08:29:17.835Z,60.17
2018-08-23T08:31:20.791Z,61.47
2018-08-23T08:33:23.675Z,63.30
2018-08-23T08:35:26.776Z,55.67
2018-08-23T08:37:29.872Z,61.23
2018-08-23T08:39:32.959Z,64.23
2018-08-23T08:41:37.244Z,55.27
2018-08-23T08:43:42.892Z,61.20
2018-08-23T08:45:45.988Z,51.33
2018-08-23T08:47:49.112Z,53.97
2018-08-23T08:49:52.190Z,51.20
2018-08-23T08:51:55.271Z,46.03
2018-08-23T08:53:59.539Z,50.70
2018-08-23T08:56:02.630Z,44.17
2018-08-23T08:58:08.433Z,41.57
2018-08-23T09:00:11.661Z,39.83
2018-08-23T09:02:14.842Z,40.73
2018-08-23T09:04:23.539Z,38.60
2018-08-23T09:06:31.463Z,39.90
2018-08-23T09:08:35.375Z,41.23
2018-08-23T09:10:38.459Z,33.00
2018-08-23T09:12:48.534Z,31.80
2018-08-23T09:14:51.616Z,31.43
2018-08-23T09:16:54.892Z,37.20
2018-08-23T09:19:00.607Z,34.93
2018-08-23T09:21:03.478Z,30.13
2018-08-23T09:23:06.573Z,28.43
2018-08-23T09:25:12.767Z,33.97
2018-08-23T09:27:17.758Z,25.90
2018-08-23T09:29:28.871Z,25.23
2018-08-23T09:31:31.816Z,29.30
2018-08-23T09:33:34.706Z,30.07
2018-08-23T09:35:37.581Z,29.77
2018-08-23T09:37:40.977Z,28.80
2018-08-23T09:39:45.748Z,33.83
2018-08-23T09:41:48.836Z,23.90
2018-08-23T09:43:51.959Z,32.87
2018-08-23T09:45:54.843Z,23.90
2018-08-23T09:47:57.723Z,31.50
2018-08-23T09:50:00.635Z,22.03
2018-08-23T09:52:07.962Z,25.57
2018-08-23T09:54:14.268Z,19.40
2018-08-23T09:56:22.914Z,25.67
2018-08-23T09:58:31.638Z,26.00
2018-08-23T10:00:40.979Z,23.73
2018-08-23T10:02:49.566Z,24.30
2018-08-23T10:04:54.920Z,25.60
2018-08-23T10:07:03.508Z,19.73
2018-08-23T10:09:15.403Z,20.07
2018-08-23T10:11:24.095Z,23.67
2018-08-23T10:13:32.452Z,24.80
2018-08-23T10:15:41.735Z,27.17
2018-08-23T10:17:50.083Z,23.23
2018-08-23T10:19:58.407Z,18.37
2018-08-23T10:22:07.039Z,22.37
2018-08-23T10:24:15.960Z,22.20
2018-08-23T10:26:29.230Z,23.07
2018-08-23T10:28:37.575Z,18.53
2018-08-23T10:30:40.830Z,32.40
2018-08-23T10:32:43.775Z,24.53
2018-08-23T10:34:46.635Z,23.10
2018-08-23T10:36:49.512Z,27.17
2018-08-23T10:38:52.415Z,32.20
2018-08-23T10:41:00.890Z,25.83
2018-08-23T10:43:03.971Z,17.40
2018-08-23T10:45:07.076Z,24.73
2018-08-23T10:47:10.169Z,18.50
2018-08-23T10:49:13.263Z,21.57
2018-08-23T10:51:16.243Z,24.73
2018-08-23T10:53:19.371Z,30.20
2018-08-23T10:55:22.252Z,26.20
2018-08-23T10:57:25.118Z,22.37
2018-08-23T10:59:27.994Z,17.03
2018-08-23T11:01:30.862Z,16.93
2018-08-23T11:03:33.725Z,22.80
2018-08-23T11:05:36.751Z,18.60
2018-08-23T11:07:45.171Z,23.63
2018-08-23T11:09:53.581Z,30.27
2018-08-23T11:11:56.372Z,15.03
2018-08-23T11:14:03.608Z,14.80
2018-08-23T11:16:12.091Z,15.50
2018-08-23T11:18:20.469Z,14.97
2018-08-23T11:20:28.460Z,14.93
2018-08-23T11:22:37.199Z,17.63
2018-08-23T11:24:40.086Z,17.10
2018-08-23T11:26:42.948Z,14.67
2018-08-23T11:28:46.545Z,14.47
2018-08-23T11:30:50.013Z,15.03
2018-08-23T11:32:53.188Z,20.00
2018-08-23T11:34:56.361Z,19.70
2018-08-23T11:36:59.429Z,17.20
2018-08-23T11:39:02.306Z,17.33
2018-08-23T11:41:05.331Z,15.10
2018-08-23T11:43:08.284Z,23.77
2018-08-23T11:45:11.327Z,35.07
2018-08-23T11:47:14.251Z,21.33
2018-08-23T11:49:17.134Z,23.27
2018-08-23T11:51:20.140Z,18.40
2018-08-23T11:53:23.423Z,16.43
2018-08-23T11:55:26.613Z,23.83
2018-08-23T11:57:29.788Z,20.20
2018-08-23T11:59:32.888Z,18.67
2018-08-23T12:01:36.035Z,22.30
2018-08-23T12:03:39.645Z,27.93
2018-08-23T12:05:42.524Z,14.73
2018-08-23T12:07:54.530Z,13.97
2018-08-23T12:09:57.425Z,19.17
2018-08-23T12:12:01.222Z,23.00
2018-08-23T12:14:04.078Z,14.43
2018-08-23T12:16:06.968Z,17.43
2018-08-23T12:18:09.884Z,16.90
2018-08-23T12:20:12.823Z,13.50
2018-08-23T12:22:15.923Z,15.23
2018-08-23T12:24:19.023Z,14.57
2018-08-23T12:26:22.004Z,14.40
2018-08-23T12:28:30.238Z,15.00
2018-08-23T12:30:33.164Z,10.43
2018-08-23T12:32:36.260Z,13.87
2018-08-23T12:34:39.360Z,10.53
2018-08-23T12:36:48.098Z,10.67
2018-08-23T12:38:56.683Z,10.97
2018-08-23T12:41:05.295Z,25.03
2018-08-23T12:43:10.740Z,24.43
2018-08-23T12:45:13.916Z,18.20
2018-08-23T12:47:16.899Z,27.73
2018-08-23T12:49:20.043Z,25.80
2018-08-23T12:51:22.951Z,20.20
2018-08-23T12:53:27.989Z,28.37
2018-08-23T12:55:31.083Z,20.47
2018-08-23T12:57:34.171Z,21.20
2018-08-23T12:59:37.253Z,22.23
2018-08-23T13:01:40.412Z,21.57
2018-08-23T13:03:43.537Z,16.83
2018-08-23T13:05:46.554Z,11.90
2018-08-23T13:07:49.673Z,14.13
2018-08-23T13:09:52.547Z,17.77
2018-08-23T13:11:55.632Z,17.40
2018-08-23T13:13:58.719Z,11.67
2018-08-23T13:16:01.809Z,10.23
2018-08-23T13:18:05.201Z,15.20
2018-08-23T13:20:08.167Z,24.87
2018-08-23T13:22:11.039Z,29.57
2018-08-23T13:24:13.932Z,24.60
2018-08-23T13:26:17.015Z,19.30
2018-08-23T13:28:20.100Z,18.10
2018-08-23T13:30:22.960Z,18.17
2018-08-23T13:32:26.287Z,21.50
2018-08-23T13:34:29.379Z,19.20
2018-08-23T13:36:32.509Z,23.30
2018-08-23T13:38:35.585Z,20.50
2018-08-23T13:40:38.664Z,17.23
2018-08-23T13:42:41.802Z,29.40
2018-08-23T13:44:44.616Z,18.27
2018-08-23T13:46:47.727Z,23.67
2018-08-23T13:48:50.796Z,32.03
2018-08-23T13:50:53.664Z,24.80
2018-08-23T13:52:56.572Z,24.80
2018-08-23T13:54:59.480Z,23.80
2018-08-23T13:57:02.367Z,20.30
2018-08-23T13:59:05.240Z,24.70
2018-08-23T14:01:08.458Z,15.70
2018-08-23T14:03:12.050Z,14.47
2018-08-23T14:05:15.152Z,36.33
2018-08-23T14:07:18.318Z,14.00
2018-08-23T14:09:21.388Z,14.80
2018-08-23T14:11:24.479Z,13.90
2018-08-23T14:13:27.582Z,16.83
2018-08-23T14:15:36.143Z,16.33
2018-08-23T14:17:39.255Z,17.90
2018-08-23T14:19:42.339Z,15.80
2018-08-23T14:21:45.447Z,14.20
2018-08-23T14:23:48.519Z,11.63
2018-08-23T14:25:51.772Z,12.63
2018-08-23T14:27:55.195Z,13.60
2018-08-23T14:29:58.287Z,12.90
2018-08-23T14:32:01.393Z,15.00
2018-08-23T14:34:04.476Z,21.40
2018-08-23T14:36:07.575Z,16.03
2018-08-23T14:38:10.687Z,21.13
2018-08-23T14:40:13.814Z,16.67
2018-08-23T14:42:16.867Z,21.63
2018-08-23T14:44:20.007Z,18.53
2018-08-23T14:46:28.673Z,31.30
2018-08-23T14:48:31.728Z,20.80
2018-08-23T14:50:35.679Z,16.00
2018-08-23T14:52:38.771Z,13.03
2018-08-23T14:54:42.677Z,26.53
2018-08-23T14:56:51.209Z,18.00
2018-08-23T14:58:54.352Z,30.80
2018-08-23T15:00:57.462Z,20.37
2018-08-23T15:03:00.748Z,21.13
2018-08-23T15:05:03.840Z,19.67
2018-08-23T15:07:06.885Z,13.83
2018-08-23T15:09:10.005Z,14.70
2018-08-23T15:11:13.075Z,18.77
2018-08-23T15:13:16.166Z,20.17
2018-08-23T15:15:23.517Z,19.60
2018-08-23T15:17:26.601Z,13.80
2018-08-23T15:19:29.451Z,17.03
2018-08-23T15:21:32.315Z,17.80
2018-08-23T15:23:35.183Z,14.40
2018-08-23T15:25:38.276Z,17.60
2018-08-23T15:27:41.376Z,20.37
2018-08-23T15:29:44.676Z,9.40
2018-08-23T15:31:47.778Z,25.27
2018-08-23T15:33:50.869Z,13.77
2018-08-23T15:35:53.740Z,20.03
2018-08-23T15:37:56.599Z,26.90
2018-08-23T15:39:59.800Z,10.43
2018-08-23T15:42:02.889Z,10.40
2018-08-23T15:44:06.180Z,12.20
2018-08-23T15:46:09.093Z,16.00
2018-08-23T15:48:11.960Z,17.60
2018-08-23T15:50:15.064Z,16.73
2018-08-23T15:52:17.955Z,19.53
2018-08-23T15:54:20.827Z,10.03
2018-08-23T15:56:23.679Z,17.53
2018-08-23T15:58:26.547Z,15.90
2018-08-23T16:00:33.802Z,24.57
2018-08-23T16:02:36.667Z,17.10
2018-08-23T16:04:39.687Z,18.13
2018-08-23T16:06:42.640Z,13.20
2018-08-23T16:08:50.608Z,28.97
2018-08-23T16:10:53.708Z,16.10
2018-08-23T16:12:56.800Z,12.57
2018-08-23T16:14:59.914Z,21.23
2018-08-23T16:17:08.509Z,17.23
2018-08-23T16:20:14.931Z,13.53
2018-08-23T16:22:17.812Z,16.33
2018-08-23T16:24:20.924Z,26.20
2018-08-23T16:26:24.100Z,15.53
2018-08-23T16:28:27.179Z,15.60
2018-08-23T16:30:30.275Z,12.40
2018-08-23T16:32:33.130Z,20.50
2018-08-23T16:34:36.279Z,17.37
2018-08-23T16:36:39.388Z,26.37
2018-08-23T16:38:42.297Z,17.10
2018-08-23T16:40:45.388Z,15.60
2018-08-23T16:42:48.496Z,15.43
2018-08-23T16:44:51.633Z,19.57
2018-08-23T16:46:54.717Z,22.60
2018-08-23T16:48:57.811Z,17.80
2018-08-23T16:51:00.908Z,18.33
2018-08-23T16:53:04.023Z,21.23
2018-08-23T16:55:07.096Z,24.73
2018-08-23T16:57:10.359Z,21.83
2018-08-23T16:59:13.463Z,18.17
2018-08-23T17:01:16.570Z,40.43
2018-08-23T17:03:19.436Z,27.63
2018-08-23T17:05:22.543Z,17.00
2018-08-23T17:07:25.644Z,20.50
2018-08-23T17:09:28.755Z,28.47
2018-08-23T17:11:31.972Z,19.90
2018-08-23T17:13:37.719Z,15.93
2018-08-23T17:15:46.223Z,27.27
2018-08-23T17:17:55.501Z,19.13
2018-08-23T17:19:58.659Z,14.37
2018-08-23T17:22:01.548Z,21.23
2018-08-23T17:24:04.487Z,13.53
2018-08-23T17:26:07.354Z,20.60
2018-08-23T17:28:10.232Z,20.20
2018-08-23T17:30:13.108Z,18.03
2018-08-23T17:32:15.979Z,20.63
2018-08-23T17:34:18.890Z,23.70
2018-08-23T17:36:21.752Z,16.20
2018-08-23T17:38:25.028Z,19.03
2018-08-23T17:40:27.867Z,23.57
2018-08-23T17:42:36.307Z,22.10
2018-08-23T17:44:39.242Z,20.73
2018-08-23T17:46:42.344Z,23.33
2018-08-23T17:48:45.450Z,23.80
2018-08-23T17:50:48.692Z,23.80
2018-08-23T17:52:51.789Z,19.63
2018-08-23T17:54:54.875Z,22.03
2018-08-23T17:56:57.961Z,28.33
2018-08-23T17:59:00.935Z,27.83
2018-08-23T18:01:03.811Z,30.00
2018-08-23T18:03:07.019Z,19.60
2018-08-23T18:05:09.884Z,20.67
2018-08-23T18:07:12.851Z,18.67
2018-08-23T18:09:15.732Z,26.43
2018-08-23T18:11:18.582Z,20.30
2018-08-23T18:13:21.524Z,28.07
2018-08-23T18:16:27.655Z,26.33
2018-08-23T18:18:30.764Z,24.60
2018-08-23T18:20:33.882Z,21.97
2018-08-23T18:22:37.043Z,21.93
2018-08-23T18:24:39.919Z,25.63
2018-08-23T18:26:42.794Z,23.57
2018-08-23T18:28:45.677Z,25.10
2018-08-23T18:30:48.544Z,20.80
2018-08-23T18:32:51.515Z,15.10
2018-08-23T18:34:54.456Z,19.20
2018-08-23T18:36:57.263Z,15.30
2018-08-23T18:39:00.132Z,18.33
2018-08-23T18:41:03.148Z,24.63
2018-08-23T18:43:06.011Z,14.00
2018-08-23T18:45:08.893Z,17.13
2018-08-23T18:47:11.791Z,13.03
2018-08-23T18:49:14.789Z,23.43
2018-08-23T18:51:17.735Z,14.10
2018-08-23T18:53:20.754Z,18.07
2018-08-23T18:55:23.695Z,15.07
2018-08-23T18:57:26.579Z,13.80
2018-08-23T18:59:29.450Z,14.20
2018-08-23T19:01:32.338Z,11.57
2018-08-23T19:03:35.222Z,11.87
2018-08-23T19:05:38.165Z,15.20
2018-08-23T19:07:41.939Z,10.23
2018-08-23T19:09:44.811Z,12.10
2018-08-23T19:11:47.795Z,11.87
2018-08-23T19:13:50.658Z,11.70
2018-08-23T19:15:58.934Z,13.77
2018-08-23T19:18:01.827Z,10.07
2018-08-23T19:20:04.843Z,13.40
2018-08-23T19:22:08.158Z,12.50
2018-08-23T19:24:11.090Z,11.30
2018-08-23T19:26:14.050Z,22.53
2018-08-23T19:28:16.955Z,22.03
2018-08-23T19:30:19.836Z,11.53
2018-08-23T19:32:22.715Z,17.60
2018-08-23T19:34:25.587Z,14.70
2018-08-23T19:36:28.576Z,14.97
2018-08-23T19:38:31.457Z,17.33
2018-08-23T19:40:34.334Z,11.80
2018-08-23T19:42:37.228Z,15.10
2018-08-23T19:44:45.779Z,22.77
2018-08-23T19:46:54.140Z,17.97
2018-08-23T19:49:02.631Z,17.63
2018-08-23T19:51:05.762Z,19.97
2018-08-23T19:53:08.627Z,23.60
2018-08-23T19:55:11.498Z,18.00
2018-08-23T19:57:14.703Z,18.60
2018-08-23T19:59:17.575Z,15.57
2018-08-23T20:01:20.471Z,16.73
2018-08-23T20:03:23.422Z,13.40
2018-08-23T20:05:26.399Z,17.80
2018-08-23T20:07:29.406Z,25.53
2018-08-23T20:09:32.362Z,20.83
2018-08-23T20:11:35.253Z,21.23
2018-08-23T20:13:38.115Z,11.03
2018-08-23T20:15:41.023Z,12.67
2018-08-23T20:17:43.901Z,23.33
2018-08-23T20:19:46.774Z,16.90
2018-08-23T20:21:49.774Z,16.40
2018-08-23T20:23:52.647Z,19.23
2018-08-23T20:25:55.517Z,16.43
2018-08-23T20:27:58.486Z,12.63
2018-08-23T20:30:01.704Z,12.77
2018-08-23T20:32:04.814Z,13.90
2018-08-23T20:34:07.931Z,11.60
2018-08-23T20:36:11.028Z,23.77
2018-08-23T20:38:14.131Z,22.80
2018-08-23T20:40:17.220Z,11.57
2018-08-23T20:42:20.330Z,12.87
2018-08-23T20:44:23.434Z,13.83
2018-08-23T20:46:26.525Z,12.40
2018-08-23T20:48:29.639Z,20.90
2018-08-23T20:50:32.756Z,15.27
2018-08-23T20:52:36.033Z,11.13
2018-08-23T20:54:39.095Z,16.30
2018-08-23T20:56:42.223Z,15.50
2018-08-23T20:58:45.353Z,11.73
2018-08-23T21:00:48.434Z,20.93
2018-08-23T21:02:51.659Z,33.93
2018-08-23T21:04:54.793Z,14.83
2018-08-23T21:06:57.934Z,15.90
2018-08-23T21:09:01.043Z,16.47
2018-08-23T21:11:04.163Z,18.37
2018-08-23T21:13:07.286Z,11.70
2018-08-23T21:15:10.399Z,17.07
2018-08-23T21:17:13.520Z,19.73
2018-08-23T21:19:16.632Z,11.20
2018-08-23T21:21:19.728Z,15.40
2018-08-23T21:23:22.620Z,14.70
2018-08-23T21:25:25.499Z,15.53
2018-08-23T21:27:28.379Z,22.00
2018-08-23T21:29:31.250Z,13.80
2018-08-23T21:31:34.200Z,14.47
2018-08-23T21:33:37.091Z,14.17
2018-08-23T21:35:39.989Z,14.10
2018-08-23T21:37:42.866Z,12.27
2018-08-23T21:39:45.745Z,15.37
2018-08-23T21:41:48.630Z,13.23
2018-08-23T21:43:51.488Z,12.63
2018-08-23T21:45:54.390Z,16.23
2018-08-23T21:47:57.293Z,17.70
2018-08-23T21:50:00.236Z,15.33
2018-08-23T21:52:03.131Z,15.13
2018-08-23T21:54:06.016Z,22.63
2018-08-23T21:56:08.970Z,18.53
2018-08-23T21:58:11.991Z,19.17
2018-08-23T22:00:15.100Z,19.67
2018-08-23T22:02:18.976Z,15.50
2018-08-23T22:04:22.079Z,17.43
2018-08-23T22:06:25.172Z,18.23
2018-08-23T22:08:28.286Z,22.47
2018-08-23T22:10:31.404Z,15.30
2018-08-23T22:12:34.502Z,17.23
2018-08-23T22:14:37.597Z,21.57
2018-08-23T22:16:40.692Z,12.27
2018-08-23T22:18:43.815Z,19.80
2018-08-23T22:20:46.999Z,14.03
2018-08-23T22:22:50.112Z,14.10
2018-08-23T22:24:53.221Z,10.70
2018-08-23T22:26:56.368Z,14.33
2018-08-23T22:28:59.395Z,23.40
2018-08-23T22:31:02.499Z,16.03
2018-08-23T22:33:06.187Z,15.00
2018-08-23T22:35:09.284Z,14.03
2018-08-23T22:37:12.385Z,10.57
2018-08-23T22:39:15.504Z,17.20
2018-08-23T22:41:18.634Z,9.83
2018-08-23T22:43:21.733Z,14.00
2018-08-23T22:45:24.951Z,12.87
2018-08-23T22:47:28.064Z,17.07
2018-08-23T22:49:31.160Z,13.37
2018-08-23T22:51:34.259Z,13.10
2018-08-23T22:53:37.352Z,10.37
2018-08-23T22:55:40.431Z,12.00
2018-08-23T22:57:43.530Z,8.90
2018-08-23T22:59:46.624Z,8.70
2018-08-23T23:01:49.707Z,12.27
2018-08-23T23:03:58.167Z,9.33
2018-08-23T23:06:01.268Z,16.13
2018-08-23T23:08:10.722Z,11.00
2018-08-23T23:10:13.812Z,13.37
2018-08-23T23:12:16.909Z,11.00
2018-08-23T23:14:19.974Z,11.40
2018-08-23T23:16:23.145Z,7.10
2018-08-23T23:18:26.147Z,8.87
2018-08-23T23:20:29.248Z,10.57
2018-08-23T23:22:32.330Z,19.30
2018-08-23T23:24:41.035Z,12.87
2018-08-23T23:26:44.111Z,7.20
2018-08-23T23:28:47.203Z,5.43
2018-08-23T23:30:50.282Z,9.63
2018-08-23T23:32:53.386Z,8.50
2018-08-23T23:34:56.497Z,8.10
2018-08-23T23:36:59.591Z,10.17
2018-08-23T23:39:02.707Z,8.50
2018-08-23T23:41:05.827Z,7.33
2018-08-23T23:43:08.927Z,10.43
2018-08-23T23:45:12.112Z,6.47
2018-08-23T23:47:15.200Z,12.40
2018-08-23T23:49:18.283Z,6.57
2018-08-23T23:51:21.380Z,6.00
2018-08-23T23:53:24.485Z,4.27
2018-08-23T23:55:27.587Z,8.30
2018-08-23T23:57:30.674Z,4.00
2018-08-23T23:59:33.772Z,4.30
